sensor_id;sensor_type;location;lat;lon;timestamp;P1;durP1;ratioP1;P2;durP2;ratioP2
16037;SDS011;8123;50.906;6.172;2023-03-12T00:01:29;8.53;;;4.17;;
16037;SDS011;8123;50.906;6.172;2023-03-12T00:03:57;8.43;;;4.40;;
16037;SDS011;8123;50.906;6.172;2023-03-12T00:06:25;9.97;;;6.57;;
16037;SDS011;8123;50.906;6.172;2023-03-12T00:08:51;18.93;;;6.20;;
16037;SDS011;8123;50.906;6.172;2023-03-12T00:11:17;9.50;;;6.00;;
16037;SDS011;8123;50.906;6.172;2023-03-12T00:13:47;14.37;;;6.00;;
16037;SDS011;8123;50.906;6.172;2023-03-12T00:16:16;12.87;;;5.57;;
16037;SDS011;8123;50.906;6.172;2023-03-12T00:18:42;11.10;;;5.53;;
16037;SDS011;8123;50.906;6.172;2023-03-12T00:21:08;9.33;;;5.80;;
16037;SDS011;8123;50.906;6.172;2023-03-12T00:23:34;12.57;;;5.70;;
16037;SDS011;8123;50.906;6.172;2023-03-12T00:26:10;9.13;;;5.93;;
16037;SDS011;8123;50.906;6.172;2023-03-12T00:28:37;20.47;;;5.10;;
16037;SDS011;8123;50.906;6.172;2023-03-12T00:31:12;13.40;;;5.70;;
16037;SDS011;8123;50.906;6.172;2023-03-12T00:33:46;8.93;;;4.23;;
16037;SDS011;8123;50.906;6.172;2023-03-12T00:36:19;8.70;;;4.20;;
16037;SDS011;8123;50.906;6.172;2023-03-12T00:38:48;9.00;;;4.17;;
16037;SDS011;8123;50.906;6.172;2023-03-12T00:41:13;10.30;;;5.07;;
16037;SDS011;8123;50.906;6.172;2023-03-12T00:43:39;14.20;;;6.17;;
16037;SDS011;8123;50.906;6.172;2023-03-12T00:46:05;18.10;;;7.77;;
16037;SDS011;8123;50.906;6.172;2023-03-12T00:48:30;14.50;;;7.87;;
16037;SDS011;8123;50.906;6.172;2023-03-12T00:50:56;15.37;;;7.60;;
16037;SDS011;8123;50.906;6.172;2023-03-12T00:53:22;19.80;;;7.80;;
16037;SDS011;8123;50.906;6.172;2023-03-12T00:55:47;13.97;;;6.80;;
16037;SDS011;8123;50.906;6.172;2023-03-12T00:58:13;22.03;;;6.87;;
16037;SDS011;8123;50.906;6.172;2023-03-12T01:00:38;13.03;;;7.07;;
16037;SDS011;8123;50.906;6.172;2023-03-12T01:03:04;13.60;;;6.50;;
16037;SDS011;8123;50.906;6.172;2023-03-12T01:05:30;14.63;;;6.50;;
16037;SDS011;8123;50.906;6.172;2023-03-12T01:07:55;11.20;;;7.00;;
16037;SDS011;8123;50.906;6.172;2023-03-12T01:10:21;16.90;;;5.90;;
16037;SDS011;8123;50.906;6.172;2023-03-12T01:12:47;11.50;;;5.87;;
16037;SDS011;8123;50.906;6.172;2023-03-12T01:15:13;10.87;;;5.10;;
16037;SDS011;8123;50.906;6.172;2023-03-12T01:17:40;11.10;;;5.43;;
16037;SDS011;8123;50.906;6.172;2023-03-12T01:20:06;13.60;;;7.07;;
16037;SDS011;8123;50.906;6.172;2023-03-12T01:22:33;9.10;;;5.60;;
16037;SDS011;8123;50.906;6.172;2023-03-12T01:24:59;15.60;;;6.00;;
16037;SDS011;8123;50.906;6.172;2023-03-12T01:27:25;9.97;;;5.33;;
16037;SDS011;8123;50.906;6.172;2023-03-12T01:29:50;14.27;;;6.10;;
16037;SDS011;8123;50.906;6.172;2023-03-12T01:32:16;8.80;;;5.87;;
16037;SDS011;8123;50.906;6.172;2023-03-12T01:34:42;10.57;;;5.57;;
16037;SDS011;8123;50.906;6.172;2023-03-12T01:37:08;11.53;;;5.10;;
16037;SDS011;8123;50.906;6.172;2023-03-12T01:39:34;10.77;;;5.10;;
16037;SDS011;8123;50.906;6.172;2023-03-12T01:42:00;12.53;;;5.07;;
16037;SDS011;8123;50.906;6.172;2023-03-12T01:44:27;7.57;;;4.93;;
16037;SDS011;8123;50.906;6.172;2023-03-12T01:46:53;16.53;;;4.70;;
16037;SDS011;8123;50.906;6.172;2023-03-12T01:52:01;10.77;;;4.33;;
16037;SDS011;8123;50.906;6.172;2023-03-12T01:54:42;12.17;;;4.47;;
16037;SDS011;8123;50.906;6.172;2023-03-12T01:57:14;6.33;;;3.40;;
16037;SDS011;8123;50.906;6.172;2023-03-12T02:00:06;4.40;;;3.30;;
16037;SDS011;8123;50.906;6.172;2023-03-12T02:02:35;5.47;;;2.60;;
16037;SDS011;8123;50.906;6.172;2023-03-12T02:05:08;9.43;;;2.67;;
16037;SDS011;8123;50.906;6.172;2023-03-12T02:07:46;1.97;;;1.87;;
16037;SDS011;8123;50.906;6.172;2023-03-12T02:10:12;6.63;;;2.83;;
16037;SDS011;8123;50.906;6.172;2023-03-12T02:12:39;5.13;;;2.83;;
16037;SDS011;8123;50.906;6.172;2023-03-12T02:15:05;4.80;;;2.73;;
16037;SDS011;8123;50.906;6.172;2023-03-12T02:17:31;8.63;;;2.70;;
16037;SDS011;8123;50.906;6.172;2023-03-12T02:22:38;2.43;;;2.17;;
16037;SDS011;8123;50.906;6.172;2023-03-12T02:25:26;9.93;;;2.93;;
16037;SDS011;8123;50.906;6.172;2023-03-12T02:28:02;5.90;;;2.40;;
16037;SDS011;8123;50.906;6.172;2023-03-12T02:30:30;6.27;;;3.00;;
16037;SDS011;8123;50.906;6.172;2023-03-12T02:32:57;4.17;;;2.43;;
16037;SDS011;8123;50.906;6.172;2023-03-12T02:35:25;2.77;;;2.57;;
16037;SDS011;8123;50.906;6.172;2023-03-12T02:37:53;13.73;;;2.47;;
16037;SDS011;8123;50.906;6.172;2023-03-12T02:42:55;7.17;;;1.93;;
16037;SDS011;8123;50.906;6.172;2023-03-12T02:45:21;4.00;;;2.07;;
16037;SDS011;8123;50.906;6.172;2023-03-12T02:47:48;3.60;;;2.00;;
16037;SDS011;8123;50.906;6.172;2023-03-12T02:50:14;3.37;;;2.40;;
16037;SDS011;8123;50.906;6.172;2023-03-12T02:52:40;8.10;;;2.50;;
16037;SDS011;8123;50.906;6.172;2023-03-12T02:55:05;9.60;;;2.30;;
16037;SDS011;8123;50.906;6.172;2023-03-12T02:57:32;8.73;;;2.90;;
16037;SDS011;8123;50.906;6.172;2023-03-12T03:00:01;7.63;;;2.77;;
16037;SDS011;8123;50.906;6.172;2023-03-12T03:02:32;4.00;;;2.10;;
16037;SDS011;8123;50.906;6.172;2023-03-12T03:04:58;9.23;;;2.47;;
16037;SDS011;8123;50.906;6.172;2023-03-12T03:07:24;10.77;;;2.40;;
16037;SDS011;8123;50.906;6.172;2023-03-12T03:09:49;7.37;;;2.90;;
16037;SDS011;8123;50.906;6.172;2023-03-12T03:12:15;5.10;;;2.40;;
16037;SDS011;8123;50.906;6.172;2023-03-12T03:14:40;17.63;;;2.30;;
16037;SDS011;8123;50.906;6.172;2023-03-12T03:17:06;6.23;;;2.07;;
16037;SDS011;8123;50.906;6.172;2023-03-12T03:19:32;3.23;;;2.80;;
16037;SDS011;8123;50.906;6.172;2023-03-12T03:21:57;5.10;;;1.90;;
16037;SDS011;8123;50.906;6.172;2023-03-12T03:24:23;9.70;;;2.27;;
16037;SDS011;8123;50.906;6.172;2023-03-12T03:26:49;5.57;;;2.67;;
16037;SDS011;8123;50.906;6.172;2023-03-12T03:29:14;3.90;;;2.00;;
16037;SDS011;8123;50.906;6.172;2023-03-12T03:31:41;7.83;;;3.37;;
16037;SDS011;8123;50.906;6.172;2023-03-12T03:34:06;4.77;;;2.33;;
16037;SDS011;8123;50.906;6.172;2023-03-12T03:36:32;4.80;;;2.93;;
16037;SDS011;8123;50.906;6.172;2023-03-12T03:38:58;8.77;;;2.87;;
16037;SDS011;8123;50.906;6.172;2023-03-12T03:41:23;5.97;;;2.77;;
16037;SDS011;8123;50.906;6.172;2023-03-12T03:43:50;3.30;;;2.50;;
16037;SDS011;8123;50.906;6.172;2023-03-12T03:46:15;12.23;;;3.40;;
16037;SDS011;8123;50.906;6.172;2023-03-12T03:48:41;5.70;;;2.83;;
16037;SDS011;8123;50.906;6.172;2023-03-12T03:51:08;9.70;;;2.70;;
16037;SDS011;8123;50.906;6.172;2023-03-12T03:53:34;9.73;;;2.10;;
16037;SDS011;8123;50.906;6.172;2023-03-12T03:56:07;5.93;;;2.70;;
16037;SDS011;8123;50.906;6.172;2023-03-12T03:58:34;6.60;;;2.40;;
16037;SDS011;8123;50.906;6.172;2023-03-12T04:01:00;4.83;;;2.30;;
16037;SDS011;8123;50.906;6.172;2023-03-12T04:03:26;8.03;;;3.10;;
16037;SDS011;8123;50.906;6.172;2023-03-12T04:05:55;4.67;;;2.80;;
16037;SDS011;8123;50.906;6.172;2023-03-12T04:08:23;3.20;;;2.60;;
16037;SDS011;8123;50.906;6.172;2023-03-12T04:10:48;3.43;;;2.40;;
16037;SDS011;8123;50.906;6.172;2023-03-12T04:13:14;8.03;;;2.83;;
16037;SDS011;8123;50.906;6.172;2023-03-12T04:15:45;2.97;;;2.77;;
16037;SDS011;8123;50.906;6.172;2023-03-12T04:18:15;9.23;;;2.80;;
16037;SDS011;8123;50.906;6.172;2023-03-12T04:20:41;3.23;;;2.30;;
16037;SDS011;8123;50.906;6.172;2023-03-12T04:23:07;2.63;;;2.43;;
16037;SDS011;8123;50.906;6.172;2023-03-12T04:25:33;6.53;;;2.83;;
16037;SDS011;8123;50.906;6.172;2023-03-12T04:27:59;6.77;;;2.83;;
16037;SDS011;8123;50.906;6.172;2023-03-12T04:30:25;10.37;;;2.60;;
16037;SDS011;8123;50.906;6.172;2023-03-12T04:32:51;4.03;;;2.73;;
16037;SDS011;8123;50.906;6.172;2023-03-12T04:35:17;7.53;;;4.03;;
16037;SDS011;8123;50.906;6.172;2023-03-12T04:37:43;7.73;;;3.30;;
16037;SDS011;8123;50.906;6.172;2023-03-12T04:40:09;8.83;;;3.00;;
16037;SDS011;8123;50.906;6.172;2023-03-12T04:42:35;3.27;;;3.07;;
16037;SDS011;8123;50.906;6.172;2023-03-12T04:45:02;7.73;;;3.30;;
16037;SDS011;8123;50.906;6.172;2023-03-12T04:47:31;6.40;;;3.43;;
16037;SDS011;8123;50.906;6.172;2023-03-12T04:49:57;9.30;;;3.63;;
16037;SDS011;8123;50.906;6.172;2023-03-12T04:52:23;7.23;;;3.57;;
16037;SDS011;8123;50.906;6.172;2023-03-12T04:54:50;8.00;;;3.57;;
16037;SDS011;8123;50.906;6.172;2023-03-12T04:57:17;13.13;;;4.70;;
16037;SDS011;8123;50.906;6.172;2023-03-12T04:59:42;9.03;;;4.13;;
16037;SDS011;8123;50.906;6.172;2023-03-12T05:02:08;9.20;;;4.17;;
16037;SDS011;8123;50.906;6.172;2023-03-12T05:04:34;7.27;;;3.90;;
16037;SDS011;8123;50.906;6.172;2023-03-12T05:06:59;7.87;;;3.73;;
16037;SDS011;8123;50.906;6.172;2023-03-12T05:09:25;7.80;;;3.60;;
16037;SDS011;8123;50.906;6.172;2023-03-12T05:11:51;9.73;;;4.73;;
16037;SDS011;8123;50.906;6.172;2023-03-12T05:14:16;5.10;;;3.90;;
16037;SDS011;8123;50.906;6.172;2023-03-12T05:16:42;6.70;;;4.10;;
16037;SDS011;8123;50.906;6.172;2023-03-12T05:19:07;8.70;;;3.30;;
16037;SDS011;8123;50.906;6.172;2023-03-12T05:21:33;7.70;;;3.83;;
16037;SDS011;8123;50.906;6.172;2023-03-12T05:23:59;7.87;;;3.80;;
16037;SDS011;8123;50.906;6.172;2023-03-12T05:26:28;4.60;;;3.43;;
16037;SDS011;8123;50.906;6.172;2023-03-12T05:29:00;6.73;;;3.50;;
16037;SDS011;8123;50.906;6.172;2023-03-12T05:31:27;7.57;;;3.60;;
16037;SDS011;8123;50.906;6.172;2023-03-12T05:33:57;8.67;;;3.30;;
16037;SDS011;8123;50.906;6.172;2023-03-12T05:36:23;5.90;;;3.37;;
16037;SDS011;8123;50.906;6.172;2023-03-12T05:38:49;8.33;;;3.70;;
16037;SDS011;8123;50.906;6.172;2023-03-12T05:41:19;8.33;;;3.20;;
16037;SDS011;8123;50.906;6.172;2023-03-12T05:43:50;6.70;;;3.43;;
16037;SDS011;8123;50.906;6.172;2023-03-12T05:46:17;9.70;;;4.30;;
16037;SDS011;8123;50.906;6.172;2023-03-12T05:48:43;9.77;;;4.60;;
16037;SDS011;8123;50.906;6.172;2023-03-12T05:51:08;5.67;;;3.50;;
16037;SDS011;8123;50.906;6.172;2023-03-12T05:53:35;17.63;;;3.93;;
16037;SDS011;8123;50.906;6.172;2023-03-12T05:56:04;5.87;;;3.70;;
16037;SDS011;8123;50.906;6.172;2023-03-12T05:58:31;4.10;;;3.10;;
16037;SDS011;8123;50.906;6.172;2023-03-12T06:00:58;8.07;;;3.63;;
16037;SDS011;8123;50.906;6.172;2023-03-12T06:03:24;4.03;;;3.40;;
16037;SDS011;8123;50.906;6.172;2023-03-12T06:05:49;4.73;;;3.20;;
16037;SDS011;8123;50.906;6.172;2023-03-12T06:08:19;3.90;;;3.50;;
16037;SDS011;8123;50.906;6.172;2023-03-12T06:10:45;6.37;;;3.63;;
16037;SDS011;8123;50.906;6.172;2023-03-12T06:13:11;13.73;;;4.33;;
16037;SDS011;8123;50.906;6.172;2023-03-12T06:15:37;8.20;;;3.43;;
16037;SDS011;8123;50.906;6.172;2023-03-12T06:18:02;3.70;;;3.37;;
16037;SDS011;8123;50.906;6.172;2023-03-12T06:20:28;9.60;;;3.40;;
16037;SDS011;8123;50.906;6.172;2023-03-12T06:22:54;12.30;;;4.17;;
16037;SDS011;8123;50.906;6.172;2023-03-12T06:25:19;6.80;;;4.00;;
16037;SDS011;8123;50.906;6.172;2023-03-12T06:27:45;10.47;;;3.93;;
16037;SDS011;8123;50.906;6.172;2023-03-12T06:30:11;9.07;;;3.87;;
16037;SDS011;8123;50.906;6.172;2023-03-12T06:32:37;3.70;;;3.37;;
16037;SDS011;8123;50.906;6.172;2023-03-12T06:35:03;7.90;;;4.40;;
16037;SDS011;8123;50.906;6.172;2023-03-12T06:37:29;9.40;;;4.30;;
16037;SDS011;8123;50.906;6.172;2023-03-12T06:39:55;13.03;;;4.70;;
16037;SDS011;8123;50.906;6.172;2023-03-12T06:42:21;14.60;;;4.00;;
16037;SDS011;8123;50.906;6.172;2023-03-12T06:44:48;6.03;;;3.83;;
16037;SDS011;8123;50.906;6.172;2023-03-12T06:47:14;4.50;;;3.60;;
16037;SDS011;8123;50.906;6.172;2023-03-12T06:49:39;13.47;;;4.87;;
16037;SDS011;8123;50.906;6.172;2023-03-12T06:52:05;8.20;;;4.33;;
16037;SDS011;8123;50.906;6.172;2023-03-12T06:54:31;4.37;;;4.00;;
16037;SDS011;8123;50.906;6.172;2023-03-12T06:56:56;7.20;;;4.47;;
16037;SDS011;8123;50.906;6.172;2023-03-12T06:59:23;4.77;;;4.33;;
16037;SDS011;8123;50.906;6.172;2023-03-12T07:01:50;4.67;;;4.00;;
16037;SDS011;8123;50.906;6.172;2023-03-12T07:04:15;5.63;;;4.40;;
16037;SDS011;8123;50.906;6.172;2023-03-12T07:06:41;7.27;;;4.20;;
16037;SDS011;8123;50.906;6.172;2023-03-12T07:09:07;4.63;;;3.93;;
16037;SDS011;8123;50.906;6.172;2023-03-12T07:11:33;6.83;;;4.40;;
16037;SDS011;8123;50.906;6.172;2023-03-12T07:13:59;6.27;;;4.30;;
16037;SDS011;8123;50.906;6.172;2023-03-12T07:16:25;4.53;;;3.40;;
16037;SDS011;8123;50.906;6.172;2023-03-12T07:18:51;9.80;;;5.83;;
16037;SDS011;8123;50.906;6.172;2023-03-12T07:21:17;7.83;;;4.10;;
16037;SDS011;8123;50.906;6.172;2023-03-12T07:23:48;9.00;;;4.00;;
16037;SDS011;8123;50.906;6.172;2023-03-12T07:26:14;5.93;;;4.70;;
16037;SDS011;8123;50.906;6.172;2023-03-12T07:28:40;4.70;;;4.10;;
16037;SDS011;8123;50.906;6.172;2023-03-12T07:31:05;6.73;;;4.33;;
16037;SDS011;8123;50.906;6.172;2023-03-12T07:33:31;5.63;;;4.87;;
16037;SDS011;8123;50.906;6.172;2023-03-12T07:35:57;5.30;;;4.73;;
16037;SDS011;8123;50.906;6.172;2023-03-12T07:38:23;6.60;;;4.93;;
16037;SDS011;8123;50.906;6.172;2023-03-12T07:40:52;9.10;;;5.73;;
16037;SDS011;8123;50.906;6.172;2023-03-12T07:43:20;7.20;;;6.47;;
16037;SDS011;8123;50.906;6.172;2023-03-12T07:45:45;6.20;;;5.60;;
16037;SDS011;8123;50.906;6.172;2023-03-12T07:48:12;6.03;;;4.70;;
16037;SDS011;8123;50.906;6.172;2023-03-12T07:50:38;6.17;;;4.87;;
16037;SDS011;8123;50.906;6.172;2023-03-12T07:53:04;5.10;;;4.70;;
16037;SDS011;8123;50.906;6.172;2023-03-12T07:55:30;6.03;;;5.30;;
16037;SDS011;8123;50.906;6.172;2023-03-12T07:57:56;7.80;;;5.90;;
16037;SDS011;8123;50.906;6.172;2023-03-12T08:00:23;12.33;;;5.33;;
16037;SDS011;8123;50.906;6.172;2023-03-12T08:02:50;7.10;;;5.93;;
16037;SDS011;8123;50.906;6.172;2023-03-12T08:05:16;5.90;;;4.13;;
16037;SDS011;8123;50.906;6.172;2023-03-12T08:07:41;10.63;;;6.67;;
16037;SDS011;8123;50.906;6.172;2023-03-12T08:10:08;8.83;;;5.93;;
16037;SDS011;8123;50.906;6.172;2023-03-12T08:12:34;5.70;;;4.60;;
16037;SDS011;8123;50.906;6.172;2023-03-12T08:15:02;9.77;;;5.77;;
16037;SDS011;8123;50.906;6.172;2023-03-12T08:17:32;10.90;;;5.60;;
16037;SDS011;8123;50.906;6.172;2023-03-12T08:19:58;11.40;;;6.47;;
16037;SDS011;8123;50.906;6.172;2023-03-12T08:22:24;6.43;;;5.33;;
16037;SDS011;8123;50.906;6.172;2023-03-12T08:24:49;5.30;;;4.67;;
16037;SDS011;8123;50.906;6.172;2023-03-12T08:27:15;6.63;;;5.90;;
16037;SDS011;8123;50.906;6.172;2023-03-12T08:29:41;9.10;;;5.33;;
16037;SDS011;8123;50.906;6.172;2023-03-12T08:32:07;8.90;;;6.60;;
16037;SDS011;8123;50.906;6.172;2023-03-12T08:34:34;9.20;;;5.47;;
16037;SDS011;8123;50.906;6.172;2023-03-12T08:37:00;11.10;;;5.83;;
16037;SDS011;8123;50.906;6.172;2023-03-12T08:39:27;6.23;;;5.60;;
16037;SDS011;8123;50.906;6.172;2023-03-12T08:41:52;8.83;;;5.27;;
16037;SDS011;8123;50.906;6.172;2023-03-12T08:44:19;5.43;;;4.93;;
16037;SDS011;8123;50.906;6.172;2023-03-12T08:46:46;6.73;;;5.77;;
16037;SDS011;8123;50.906;6.172;2023-03-12T08:49:12;7.63;;;4.70;;
16037;SDS011;8123;50.906;6.172;2023-03-12T08:51:37;5.03;;;4.63;;
16037;SDS011;8123;50.906;6.172;2023-03-12T08:54:03;5.27;;;4.87;;
16037;SDS011;8123;50.906;6.172;2023-03-12T08:56:29;7.50;;;4.40;;
16037;SDS011;8123;50.906;6.172;2023-03-12T08:58:56;4.47;;;4.00;;
16037;SDS011;8123;50.906;6.172;2023-03-12T09:01:22;4.40;;;4.00;;
16037;SDS011;8123;50.906;6.172;2023-03-12T09:03:48;4.53;;;4.00;;
16037;SDS011;8123;50.906;6.172;2023-03-12T09:06:16;6.00;;;5.40;;
16037;SDS011;8123;50.906;6.172;2023-03-12T09:08:43;5.53;;;5.13;;
16037;SDS011;8123;50.906;6.172;2023-03-12T09:11:11;9.40;;;5.53;;
16037;SDS011;8123;50.906;6.172;2023-03-12T09:13:38;7.17;;;5.47;;
16037;SDS011;8123;50.906;6.172;2023-03-12T09:16:05;8.13;;;5.83;;
16037;SDS011;8123;50.906;6.172;2023-03-12T09:18:31;8.00;;;5.60;;
16037;SDS011;8123;50.906;6.172;2023-03-12T09:20:58;8.37;;;5.70;;
16037;SDS011;8123;50.906;6.172;2023-03-12T09:23:24;9.43;;;5.47;;
16037;SDS011;8123;50.906;6.172;2023-03-12T09:25:50;9.87;;;6.23;;
16037;SDS011;8123;50.906;6.172;2023-03-12T09:28:15;17.07;;;7.60;;
16037;SDS011;8123;50.906;6.172;2023-03-12T09:30:41;13.00;;;8.73;;
16037;SDS011;8123;50.906;6.172;2023-03-12T09:33:07;10.27;;;7.07;;
16037;SDS011;8123;50.906;6.172;2023-03-12T09:35:33;7.93;;;6.60;;
16037;SDS011;8123;50.906;6.172;2023-03-12T09:37:58;20.20;;;7.33;;
16037;SDS011;8123;50.906;6.172;2023-03-12T09:40:26;12.37;;;8.27;;
16037;SDS011;8123;50.906;6.172;2023-03-12T09:42:55;12.17;;;7.60;;
16037;SDS011;8123;50.906;6.172;2023-03-12T09:45:25;13.77;;;8.00;;
16037;SDS011;8123;50.906;6.172;2023-03-12T09:47:57;13.60;;;8.00;;
16037;SDS011;8123;50.906;6.172;2023-03-12T09:50:26;16.83;;;8.20;;
16037;SDS011;8123;50.906;6.172;2023-03-12T09:53:02;19.50;;;8.53;;
16037;SDS011;8123;50.906;6.172;2023-03-12T09:55:36;19.87;;;8.87;;
16037;SDS011;8123;50.906;6.172;2023-03-12T09:58:08;16.23;;;8.70;;
16037;SDS011;8123;50.906;6.172;2023-03-12T10:00:41;12.20;;;7.93;;
16037;SDS011;8123;50.906;6.172;2023-03-12T10:08:45;23.77;;;10.00;;
16037;SDS011;8123;50.906;6.172;2023-03-12T10:19:55;31.17;;;12.20;;
16037;SDS011;8123;50.906;6.172;2023-03-12T10:28:09;25.03;;;11.93;;
16037;SDS011;8123;50.906;6.172;2023-03-12T10:31:00;28.97;;;11.97;;
16037;SDS011;8123;50.906;6.172;2023-03-12T10:33:41;29.50;;;11.40;;
16037;SDS011;8123;50.906;6.172;2023-03-12T10:36:45;38.70;;;11.20;;
16037;SDS011;8123;50.906;6.172;2023-03-12T10:39:13;36.93;;;12.33;;
16037;SDS011;8123;50.906;6.172;2023-03-12T10:41:42;37.57;;;12.30;;
16037;SDS011;8123;50.906;6.172;2023-03-12T10:44:10;25.53;;;10.30;;
16037;SDS011;8123;50.906;6.172;2023-03-12T10:47:03;41.20;;;11.53;;
16037;SDS011;8123;50.906;6.172;2023-03-12T10:49:51;32.83;;;10.97;;
16037;SDS011;8123;50.906;6.172;2023-03-12T10:52:20;29.20;;;11.00;;
16037;SDS011;8123;50.906;6.172;2023-03-12T10:54:51;33.47;;;11.43;;
16037;SDS011;8123;50.906;6.172;2023-03-12T10:57:18;46.10;;;14.23;;
16037;SDS011;8123;50.906;6.172;2023-03-12T10:59:45;29.83;;;10.97;;
16037;SDS011;8123;50.906;6.172;2023-03-12T11:04:58;34.37;;;11.67;;
16037;SDS011;8123;50.906;6.172;2023-03-12T11:07:28;50.97;;;12.73;;
16037;SDS011;8123;50.906;6.172;2023-03-12T11:12:31;30.77;;;11.57;;
16037;SDS011;8123;50.906;6.172;2023-03-12T11:15:02;34.50;;;9.03;;
16037;SDS011;8123;50.906;6.172;2023-03-12T11:17:42;34.40;;;9.90;;
16037;SDS011;8123;50.906;6.172;2023-03-12T11:20:23;30.63;;;10.13;;
16037;SDS011;8123;50.906;6.172;2023-03-12T11:22:51;45.23;;;10.83;;
16037;SDS011;8123;50.906;6.172;2023-03-12T11:25:24;35.80;;;10.13;;
16037;SDS011;8123;50.906;6.172;2023-03-12T11:27:55;35.27;;;8.80;;
16037;SDS011;8123;50.906;6.172;2023-03-12T11:30:42;43.23;;;8.20;;
16037;SDS011;8123;50.906;6.172;2023-03-12T11:33:09;23.63;;;7.23;;
16037;SDS011;8123;50.906;6.172;2023-03-12T11:35:43;23.03;;;7.50;;
16037;SDS011;8123;50.906;6.172;2023-03-12T11:38:34;32.63;;;7.57;;
16037;SDS011;8123;50.906;6.172;2023-03-12T11:41:52;24.03;;;6.10;;
16037;SDS011;8123;50.906;6.172;2023-03-12T11:47:24;36.30;;;7.10;;
16037;SDS011;8123;50.906;6.172;2023-03-12T11:50:17;34.23;;;7.30;;
16037;SDS011;8123;50.906;6.172;2023-03-12T11:55:21;36.00;;;6.97;;
16037;SDS011;8123;50.906;6.172;2023-03-12T12:01:05;26.73;;;4.80;;
16037;SDS011;8123;50.906;6.172;2023-03-12T12:03:52;31.13;;;6.73;;
16037;SDS011;8123;50.906;6.172;2023-03-12T12:14:38;23.60;;;5.20;;
16037;SDS011;8123;50.906;6.172;2023-03-12T12:17:28;20.60;;;5.40;;
16037;SDS011;8123;50.906;6.172;2023-03-12T12:28:38;18.57;;;5.10;;
16037;SDS011;8123;50.906;6.172;2023-03-12T12:34:00;12.67;;;3.60;;
16037;SDS011;8123;50.906;6.172;2023-03-12T12:36:51;29.87;;;5.67;;
16037;SDS011;8123;50.906;6.172;2023-03-12T12:39:34;32.27;;;5.70;;
16037;SDS011;8123;50.906;6.172;2023-03-12T12:42:09;29.93;;;5.73;;
16037;SDS011;8123;50.906;6.172;2023-03-12T12:44:43;35.73;;;5.87;;
16037;SDS011;8123;50.906;6.172;2023-03-12T12:47:21;27.90;;;5.90;;
16037;SDS011;8123;50.906;6.172;2023-03-12T12:50:04;27.47;;;4.67;;
16037;SDS011;8123;50.906;6.172;2023-03-12T12:52:31;26.67;;;4.20;;
16037;SDS011;8123;50.906;6.172;2023-03-12T13:02:49;33.27;;;6.20;;
16037;SDS011;8123;50.906;6.172;2023-03-12T13:05:19;27.03;;;6.10;;
16037;SDS011;8123;50.906;6.172;2023-03-12T13:07:49;31.90;;;5.87;;
16037;SDS011;8123;50.906;6.172;2023-03-12T13:12:56;30.33;;;4.97;;
16037;SDS011;8123;50.906;6.172;2023-03-12T13:18:00;31.00;;;5.23;;
16037;SDS011;8123;50.906;6.172;2023-03-12T13:20:59;48.13;;;16.20;;
16037;SDS011;8123;50.906;6.172;2023-03-12T13:23:36;33.23;;;5.80;;
16037;SDS011;8123;50.906;6.172;2023-03-12T13:29:10;35.67;;;8.57;;
16037;SDS011;8123;50.906;6.172;2023-03-12T13:31:55;31.33;;;5.40;;
16037;SDS011;8123;50.906;6.172;2023-03-12T13:36:51;21.83;;;5.20;;
16037;SDS011;8123;50.906;6.172;2023-03-12T13:39:33;51.63;;;5.40;;
16037;SDS011;8123;50.906;6.172;2023-03-12T13:42:02;24.03;;;5.00;;
16037;SDS011;8123;50.906;6.172;2023-03-12T13:44:49;26.03;;;5.57;;
16037;SDS011;8123;50.906;6.172;2023-03-12T13:47:20;32.23;;;4.40;;
16037;SDS011;8123;50.906;6.172;2023-03-12T13:49:52;22.83;;;5.10;;
16037;SDS011;8123;50.906;6.172;2023-03-12T13:52:23;33.60;;;6.73;;
16037;SDS011;8123;50.906;6.172;2023-03-12T13:55:14;34.57;;;6.47;;
16037;SDS011;8123;50.906;6.172;2023-03-12T13:57:57;28.87;;;4.90;;
16037;SDS011;8123;50.906;6.172;2023-03-12T14:00:25;31.83;;;6.30;;
16037;SDS011;8123;50.906;6.172;2023-03-12T14:02:56;25.10;;;4.73;;
16037;SDS011;8123;50.906;6.172;2023-03-12T14:05:25;36.23;;;6.60;;
16037;SDS011;8123;50.906;6.172;2023-03-12T14:10:52;31.40;;;4.80;;
16037;SDS011;8123;50.906;6.172;2023-03-12T14:16:32;35.53;;;4.17;;
16037;SDS011;8123;50.906;6.172;2023-03-12T14:19:13;26.87;;;5.27;;
16037;SDS011;8123;50.906;6.172;2023-03-12T14:21:42;35.37;;;5.03;;
16037;SDS011;8123;50.906;6.172;2023-03-12T14:27:18;25.77;;;5.70;;
16037;SDS011;8123;50.906;6.172;2023-03-12T14:30:31;29.13;;;4.47;;
16037;SDS011;8123;50.906;6.172;2023-03-12T14:32:42;33.33;;;4.63;;
16037;SDS011;8123;50.906;6.172;2023-03-12T14:35:22;26.23;;;4.30;;
16037;SDS011;8123;50.906;6.172;2023-03-12T14:37:58;35.30;;;7.30;;
16037;SDS011;8123;50.906;6.172;2023-03-12T14:40:34;25.57;;;5.00;;
16037;SDS011;8123;50.906;6.172;2023-03-12T14:45:44;27.00;;;4.57;;
16037;SDS011;8123;50.906;6.172;2023-03-12T14:48:10;21.80;;;5.63;;
16037;SDS011;8123;50.906;6.172;2023-03-12T14:50:37;38.00;;;6.13;;
16037;SDS011;8123;50.906;6.172;2023-03-12T14:53:11;28.10;;;5.00;;
16037;SDS011;8123;50.906;6.172;2023-03-12T14:55:42;40.53;;;5.83;;
16037;SDS011;8123;50.906;6.172;2023-03-12T14:58:15;33.57;;;5.87;;
16037;SDS011;8123;50.906;6.172;2023-03-12T15:00:42;21.10;;;4.73;;
16037;SDS011;8123;50.906;6.172;2023-03-12T15:03:17;32.37;;;4.60;;
16037;SDS011;8123;50.906;6.172;2023-03-12T15:05:44;15.83;;;3.90;;
16037;SDS011;8123;50.906;6.172;2023-03-12T15:08:11;16.13;;;4.27;;
16037;SDS011;8123;50.906;6.172;2023-03-12T15:10:37;38.53;;;3.60;;
16037;SDS011;8123;50.906;6.172;2023-03-12T15:13:04;26.80;;;5.67;;
16037;SDS011;8123;50.906;6.172;2023-03-12T15:15:40;31.53;;;4.67;;
16037;SDS011;8123;50.906;6.172;2023-03-12T15:18:12;27.73;;;5.50;;
16037;SDS011;8123;50.906;6.172;2023-03-12T15:20:48;26.43;;;3.97;;
16037;SDS011;8123;50.906;6.172;2023-03-12T15:23:16;30.60;;;4.53;;
16037;SDS011;8123;50.906;6.172;2023-03-12T15:25:43;21.73;;;4.40;;
16037;SDS011;8123;50.906;6.172;2023-03-12T15:30:35;29.40;;;4.70;;
16037;SDS011;8123;50.906;6.172;2023-03-12T15:35:58;33.87;;;5.80;;
16037;SDS011;8123;50.906;6.172;2023-03-12T15:38:30;26.23;;;5.13;;
16037;SDS011;8123;50.906;6.172;2023-03-12T15:40:59;42.20;;;4.13;;
16037;SDS011;8123;50.906;6.172;2023-03-12T15:43:31;37.23;;;5.97;;
16037;SDS011;8123;50.906;6.172;2023-03-12T15:45:58;31.93;;;4.80;;
16037;SDS011;8123;50.906;6.172;2023-03-12T15:48:33;25.70;;;4.33;;
16037;SDS011;8123;50.906;6.172;2023-03-12T15:51:01;29.27;;;4.53;;
16037;SDS011;8123;50.906;6.172;2023-03-12T15:53:28;29.57;;;5.73;;
16037;SDS011;8123;50.906;6.172;2023-03-12T15:56:06;28.50;;;5.77;;
16037;SDS011;8123;50.906;6.172;2023-03-12T15:58:46;30.10;;;4.40;;
16037;SDS011;8123;50.906;6.172;2023-03-12T16:01:22;24.70;;;4.83;;
16037;SDS011;8123;50.906;6.172;2023-03-12T16:03:51;31.25;;;6.05;;
16037;SDS011;8123;50.906;6.172;2023-03-12T16:06:19;31.33;;;6.60;;
16037;SDS011;8123;50.906;6.172;2023-03-12T16:08:50;30.50;;;5.10;;
16037;SDS011;8123;50.906;6.172;2023-03-12T16:11:21;37.77;;;5.70;;
16037;SDS011;8123;50.906;6.172;2023-03-12T16:13:49;26.67;;;5.37;;
16037;SDS011;8123;50.906;6.172;2023-03-12T16:16:16;39.63;;;5.87;;
16037;SDS011;8123;50.906;6.172;2023-03-12T16:18:42;44.33;;;5.37;;
16037;SDS011;8123;50.906;6.172;2023-03-12T16:21:08;27.53;;;5.40;;
16037;SDS011;8123;50.906;6.172;2023-03-12T16:23:34;31.17;;;4.57;;
16037;SDS011;8123;50.906;6.172;2023-03-12T16:26:01;25.37;;;5.13;;
16037;SDS011;8123;50.906;6.172;2023-03-12T16:28:28;28.40;;;4.77;;
16037;SDS011;8123;50.906;6.172;2023-03-12T16:30:54;27.10;;;4.23;;
16037;SDS011;8123;50.906;6.172;2023-03-12T16:33:21;26.13;;;4.40;;
16037;SDS011;8123;50.906;6.172;2023-03-12T16:35:47;33.90;;;4.90;;
16037;SDS011;8123;50.906;6.172;2023-03-12T16:38:13;38.10;;;5.20;;
16037;SDS011;8123;50.906;6.172;2023-03-12T16:40:41;28.00;;;4.60;;
16037;SDS011;8123;50.906;6.172;2023-03-12T16:43:16;37.17;;;6.40;;